sensor_id;sensor_type;location;lat;lon;timestamp;temperature;humidity
20744;DHT22;56303;52.160;-0.428;2024-01-15T07:37:59;-0.10;99.90
20744;DHT22;56303;52.160;-0.428;2024-01-15T07:40:33;-0.20;99.90
20744;DHT22;56303;52.160;-0.428;2024-01-15T07:43:00;0.10;99.90
20744;DHT22;56303;52.160;-0.428;2024-01-15T07:45:27;0.20;99.90
20744;DHT22;56303;52.160;-0.428;2024-01-15T07:47:55;0.40;99.90
20744;DHT22;56303;52.160;-0.428;2024-01-15T07:50:23;0.40;99.90
20744;DHT22;56303;52.160;-0.428;2024-01-15T07:52:50;0.20;99.90
20744;DHT22;56303;52.160;-0.428;2024-01-15T07:55:18;-2.30;99.90
20744;DHT22;56303;52.160;-0.428;2024-01-15T07:57:45;0.00;99.90
20744;DHT22;56303;52.160;-0.428;2024-01-15T08:04:25;-0.30;99.90
20744;DHT22;56303;52.160;-0.428;2024-01-15T08:07:14;-0.10;99.90
20744;DHT22;56303;52.160;-0.428;2024-01-15T08:09:43;-0.10;99.90
20744;DHT22;56303;52.160;-0.428;2024-01-15T08:12:15;0.40;99.90
20744;DHT22;56303;52.160;-0.428;2024-01-15T08:14:48;0.20;99.90
20744;DHT22;56303;52.160;-0.428;2024-01-15T08:17:21;0.10;99.90
20744;DHT22;56303;52.160;-0.428;2024-01-15T08:19:48;0.00;99.90
20744;DHT22;56303;52.160;-0.428;2024-01-15T08:22:20;0.10;99.90
20744;DHT22;56303;52.160;-0.428;2024-01-15T08:24:48;0.00;99.90
20744;DHT22;56303;52.160;-0.428;2024-01-15T08:27:15;0.00;99.90
20744;DHT22;56303;52.160;-0.428;2024-01-15T08:29:42;0.10;99.90
20744;DHT22;56303;52.160;-0.428;2024-01-15T08:32:09;0.10;99.90
20744;DHT22;56303;52.160;-0.428;2024-01-15T08:34:41;0.30;99.90
20744;DHT22;56303;52.160;-0.428;2024-01-15T08:37:09;0.30;99.90
20744;DHT22;56303;52.160;-0.428;2024-01-15T08:39:36;0.40;99.90
20744;DHT22;56303;52.160;-0.428;2024-01-15T08:42:06;0.40;99.90
20744;DHT22;56303;52.160;-0.428;2024-01-15T08:44:33;0.30;99.90
20744;DHT22;56303;52.160;-0.428;2024-01-15T08:47:05;0.60;99.90
20744;DHT22;56303;52.160;-0.428;2024-01-15T08:49:37;0.70;99.90
20744;DHT22;56303;52.160;-0.428;2024-01-15T08:52:12;2.00;99.90
20744;DHT22;56303;52.160;-0.428;2024-01-15T08:54:40;0.30;99.90
20744;DHT22;56303;52.160;-0.428;2024-01-15T08:57:08;0.60;99.90
20744;DHT22;56303;52.160;-0.428;2024-01-15T08:59:38;0.60;99.90
20744;DHT22;56303;52.160;-0.428;2024-01-15T09:02:09;0.70;99.90
20744;DHT22;56303;52.160;-0.428;2024-01-15T09:04:50;0.80;99.90
20744;DHT22;56303;52.160;-0.428;2024-01-15T09:07:22;0.20;99.90
20744;DHT22;56303;52.160;-0.428;2024-01-15T09:09:56;-0.60;99.90
20744;DHT22;56303;52.160;-0.428;2024-01-15T09:12:30;0.90;99.90
20744;DHT22;56303;52.160;-0.428;2024-01-15T09:14:59;0.90;99.90
20744;DHT22;56303;52.160;-0.428;2024-01-15T09:17:27;0.80;99.90
20744;DHT22;56303;52.160;-0.428;2024-01-15T09:19:58;0.80;99.90
20744;DHT22;56303;52.160;-0.428;2024-01-15T09:22:39;1.20;99.90
20744;DHT22;56303;52.160;-0.428;2024-01-15T09:29:09;1.20;99.90
20744;DHT22;56303;52.160;-0.428;2024-01-15T09:32:01;-0.60;99.90
20744;DHT22;56303;52.160;-0.428;2024-01-15T09:34:48;1.00;99.90
20744;DHT22;56303;52.160;-0.428;2024-01-15T09:37:28;1.10;99.90
20744;DHT22;56303;52.160;-0.428;2024-01-15T09:40:31;1.30;99.90
20744;DHT22;56303;52.160;-0.428;2024-01-15T09:43:13;-0.80;99.90
20744;DHT22;56303;52.160;-0.428;2024-01-15T09:45:59;3.60;99.90
20744;DHT22;56303;52.160;-0.428;2024-01-15T09:48:40;-0.90;99.90
20744;DHT22;56303;52.160;-0.428;2024-01-15T09:51:12;1.40;99.90
20744;DHT22;56303;52.160;-0.428;2024-01-15T09:53:43;1.20;99.90
20744;DHT22;56303;52.160;-0.428;2024-01-15T09:56:11;1.20;99.90
20744;DHT22;56303;52.160;-0.428;2024-01-15T09:58:42;1.10;99.90
20744;DHT22;56303;52.160;-0.428;2024-01-15T10:01:10;1.10;99.90
20744;DHT22;56303;52.160;-0.428;2024-01-15T10:03:39;1.20;99.90
20744;DHT22;56303;52.160;-0.428;2024-01-15T10:06:07;1.10;99.90
20744;DHT22;56303;52.160;-0.428;2024-01-15T10:08:37;1.20;99.90
20744;DHT22;56303;52.160;-0.428;2024-01-15T10:11:06;1.30;99.90
20744;DHT22;56303;52.160;-0.428;2024-01-15T10:13:35;1.40;99.90
20744;DHT22;56303;52.160;-0.428;2024-01-15T10:16:10;1.70;99.90
20744;DHT22;56303;52.160;-0.428;2024-01-15T10:18:40;1.50;99.90
20744;DHT22;56303;52.160;-0.428;2024-01-15T10:21:14;1.50;99.90
20744;DHT22;56303;52.160;-0.428;2024-01-15T10:23:48;2.20;99.90
20744;DHT22;56303;52.160;-0.428;2024-01-15T10:26:48;1.70;99.90
20744;DHT22;56303;52.160;-0.428;2024-01-15T10:29:59;2.70;99.90
20744;DHT22;56303;52.160;-0.428;2024-01-15T10:33:00;2.20;99.90
20744;DHT22;56303;52.160;-0.428;2024-01-15T10:35:54;1.10;99.90
20744;DHT22;56303;52.160;-0.428;2024-01-15T10:38:31;4.00;99.90
20744;DHT22;56303;52.160;-0.428;2024-01-15T10:41:08;2.90;99.90
20744;DHT22;56303;52.160;-0.428;2024-01-15T10:43:50;2.20;99.90
20744;DHT22;56303;52.160;-0.428;2024-01-15T10:46:46;3.50;99.90
20744;DHT22;56303;52.160;-0.428;2024-01-15T10:49:18;4.00;99.90
20744;DHT22;56303;52.160;-0.428;2024-01-15T10:52:08;0.80;99.90
20744;DHT22;56303;52.160;-0.428;2024-01-15T10:54:48;1.50;99.90
20744;DHT22;56303;52.160;-0.428;2024-01-15T10:57:49;2.10;99.90
20744;DHT22;56303;52.160;-0.428;2024-01-15T11:00:28;1.60;99.90
20744;DHT22;56303;52.160;-0.428;2024-01-15T11:03:07;2.30;99.90
20744;DHT22;56303;52.160;-0.428;2024-01-15T11:06:25;4.90;99.90
20744;DHT22;56303;52.160;-0.428;2024-01-15T11:09:39;2.90;99.90
20744;DHT22;56303;52.160;-0.428;2024-01-15T11:13:10;2.60;99.90
20744;DHT22;56303;52.160;-0.428;2024-01-15T11:19:43;2.70;99.90
20744;DHT22;56303;52.160;-0.428;2024-01-15T11:25:15;2.80;99.90
20744;DHT22;56303;52.160;-0.428;2024-01-15T11:30:27;2.20;99.90
20744;DHT22;56303;52.160;-0.428;2024-01-15T11:32:58;2.90;99.90
20744;DHT22;56303;52.160;-0.428;2024-01-15T11:35:53;3.00;99.90
20744;DHT22;56303;52.160;-0.428;2024-01-15T11:38:31;3.30;99.90
20744;DHT22;56303;52.160;-0.428;2024-01-15T11:41:00;3.20;99.90
20744;DHT22;56303;52.160;-0.428;2024-01-15T11:43:30;3.30;99.90
20744;DHT22;56303;52.160;-0.428;2024-01-15T11:46:04;2.90;99.90
20744;DHT22;56303;52.160;-0.428;2024-01-15T11:48:43;3.00;99.90
20744;DHT22;56303;52.160;-0.428;2024-01-15T11:51:20;4.00;99.90
20744;DHT22;56303;52.160;-0.428;2024-01-15T11:53:52;3.70;99.90
20744;DHT22;56303;52.160;-0.428;2024-01-15T11:56:26;3.80;99.90
20744;DHT22;56303;52.160;-0.428;2024-01-15T11:58:55;4.10;99.90
20744;DHT22;56303;52.160;-0.428;2024-01-15T12:01:27;4.50;99.90
20744;DHT22;56303;52.160;-0.428;2024-01-15T12:03:58;4.80;99.90
20744;DHT22;56303;52.160;-0.428;2024-01-15T12:06:26;4.50;99.90
20744;DHT22;56303;52.160;-0.428;2024-01-15T12:09:08;4.30;99.90
20744;DHT22;56303;52.160;-0.428;2024-01-15T12:11:58;2.90;99.90
20744;DHT22;56303;52.160;-0.428;2024-01-15T12:14:33;4.50;99.90
20744;DHT22;56303;52.160;-0.428;2024-01-15T12:17:02;5.20;99.90
20744;DHT22;56303;52.160;-0.428;2024-01-15T12:22:36;3.90;99.90
20744;DHT22;56303;52.160;-0.428;2024-01-15T12:37:13;6.80;99.90
20744;DHT22;56303;52.160;-0.428;2024-01-15T12:39:44;7.00;99.90
20744;DHT22;56303;52.160;-0.428;2024-01-15T13:03:22;5.60;99.00
20744;DHT22;56303;52.160;-0.428;2024-01-15T13:05:52;8.10;99.10
20744;DHT22;56303;52.160;-0.428;2024-01-15T13:11:06;6.90;99.30
20744;DHT22;56303;52.160;-0.428;2024-01-15T13:18:53;7.70;98.80
20744;DHT22;56303;52.160;-0.428;2024-01-15T13:21:27;7.50;97.90
20744;DHT22;56303;52.160;-0.428;2024-01-15T13:24:08;7.00;99.00
20744;DHT22;56303;52.160;-0.428;2024-01-15T13:30:11;6.80;99.10
20744;DHT22;56303;52.160;-0.428;2024-01-15T13:32:40;6.50;99.90
20744;DHT22;56303;52.160;-0.428;2024-01-15T13:35:08;5.40;99.90
20744;DHT22;56303;52.160;-0.428;2024-01-15T13:37:40;5.90;99.90
20744;DHT22;56303;52.160;-0.428;2024-01-15T13:40:09;6.60;99.70
20744;DHT22;56303;52.160;-0.428;2024-01-15T13:42:36;6.30;98.90
20744;DHT22;56303;52.160;-0.428;2024-01-15T13:45:10;8.80;99.90
20744;DHT22;56303;52.160;-0.428;2024-01-15T13:51:08;5.20;97.80
20744;DHT22;56303;52.160;-0.428;2024-01-15T13:53:35;8.70;99.00
20744;DHT22;56303;52.160;-0.428;2024-01-15T13:56:03;7.20;98.50
20744;DHT22;56303;52.160;-0.428;2024-01-15T13:58:32;5.40;98.00
20744;DHT22;56303;52.160;-0.428;2024-01-15T14:01:03;8.00;98.30
20744;DHT22;56303;52.160;-0.428;2024-01-15T14:03:39;7.10;98.30
20744;DHT22;56303;52.160;-0.428;2024-01-15T14:06:06;6.10;96.50
20744;DHT22;56303;52.160;-0.428;2024-01-15T14:08:37;8.50;98.90
20744;DHT22;56303;52.160;-0.428;2024-01-15T14:11:07;7.40;97.80
20744;DHT22;56303;52.160;-0.428;2024-01-15T14:13:36;6.40;96.70
20744;DHT22;56303;52.160;-0.428;2024-01-15T14:16:04;6.70;97.30
20744;DHT22;56303;52.160;-0.428;2024-01-15T14:18:32;7.30;98.40
20744;DHT22;56303;52.160;-0.428;2024-01-15T14:21:00;9.30;98.50
20744;DHT22;56303;52.160;-0.428;2024-01-15T14:23:28;6.90;96.90
20744;DHT22;56303;52.160;-0.428;2024-01-15T14:25:56;7.00;97.50
20744;DHT22;56303;52.160;-0.428;2024-01-15T14:28:24;6.80;98.50
20744;DHT22;56303;52.160;-0.428;2024-01-15T14:30:51;4.80;98.40
20744;DHT22;56303;52.160;-0.428;2024-01-15T14:33:19;5.50;98.30
20744;DHT22;56303;52.160;-0.428;2024-01-15T14:35:47;6.20;99.20
20744;DHT22;56303;52.160;-0.428;2024-01-15T14:38:15;5.00;98.50
20744;DHT22;56303;52.160;-0.428;2024-01-15T14:40:42;5.80;98.40
20744;DHT22;56303;52.160;-0.428;2024-01-15T14:43:11;8.50;98.70
20744;DHT22;56303;52.160;-0.428;2024-01-15T14:45:38;6.60;97.30
20744;DHT22;56303;52.160;-0.428;2024-01-15T14:48:06;6.60;97.70
20744;DHT22;56303;52.160;-0.428;2024-01-15T14:53:09;7.70;97.00
20744;DHT22;56303;52.160;-0.428;2024-01-15T14:55:36;6.30;95.30
20744;DHT22;56303;52.160;-0.428;2024-01-15T14:58:04;5.40;95.20
20744;DHT22;56303;52.160;-0.428;2024-01-15T15:00:31;5.70;96.10
20744;DHT22;56303;52.160;-0.428;2024-01-15T15:02:58;7.40;96.70
20744;DHT22;56303;52.160;-0.428;2024-01-15T15:05:26;6.00;96.00
20744;DHT22;56303;52.160;-0.428;2024-01-15T15:07:53;7.00;96.40
20744;DHT22;56303;52.160;-0.428;2024-01-15T15:10:21;6.80;96.40
20744;DHT22;56303;52.160;-0.428;2024-01-15T15:12:48;5.90;95.70
20744;DHT22;56303;52.160;-0.428;2024-01-15T15:15:15;6.30;95.10
20744;DHT22;56303;52.160;-0.428;2024-01-15T15:17:50;7.40;96.20
20744;DHT22;56303;52.160;-0.428;2024-01-15T15:20:26;6.20;95.60
20744;DHT22;56303;52.160;-0.428;2024-01-15T15:23:13;6.80;95.90
20744;DHT22;56303;52.160;-0.428;2024-01-15T15:26:01;8.10;95.90
20744;DHT22;56303;52.160;-0.428;2024-01-15T15:41:05;5.50;97.90
20744;DHT22;56303;52.160;-0.428;2024-01-15T15:46:22;4.90;98.80
20744;DHT22;56303;52.160;-0.428;2024-01-15T15:51:45;4.10;99.90
20744;DHT22;56303;52.160;-0.428;2024-01-15T15:54:14;4.30;99.90
20744;DHT22;56303;52.160;-0.428;2024-01-15T15:56:41;3.60;99.90
20744;DHT22;56303;52.160;-0.428;2024-01-15T15:59:14;3.60;99.90
20744;DHT22;56303;52.160;-0.428;2024-01-15T16:01:41;3.20;99.90
20744;DHT22;56303;52.160;-0.428;2024-01-15T16:04:09;3.30;99.90
20744;DHT22;56303;52.160;-0.428;2024-01-15T16:06:36;3.10;99.90
20744;DHT22;56303;52.160;-0.428;2024-01-15T16:09:38;2.70;99.90
20744;DHT22;56303;52.160;-0.428;2024-01-15T16:12:07;1.10;99.90
20744;DHT22;56303;52.160;-0.428;2024-01-15T16:14:39;2.50;99.90
20744;DHT22;56303;52.160;-0.428;2024-01-15T16:17:09;2.30;99.90
20744;DHT22;56303;52.160;-0.428;2024-01-15T16:19:56;1.00;99.90
20744;DHT22;56303;52.160;-0.428;2024-01-15T16:22:47;1.40;99.90
20744;DHT22;56303;52.160;-0.428;2024-01-15T16:25:38;2.60;99.90
20744;DHT22;56303;52.160;-0.428;2024-01-15T16:28:30;2.20;99.90
20744;DHT22;56303;52.160;-0.428;2024-01-15T16:31:21;2.40;99.90
20744;DHT22;56303;52.160;-0.428;2024-01-15T19:01:31;1.80;99.90
20744;DHT22;56303;52.160;-0.428;2024-01-15T19:19:44;1.50;99.90
20744;DHT22;56303;52.160;-0.428;2024-01-15T19:22:22;1.30;99.90
20744;DHT22;56303;52.160;-0.428;2024-01-15T19:24:49;1.30;99.90
20744;DHT22;56303;52.160;-0.428;2024-01-15T20:16:59;1.40;99.90
20744;DHT22;56303;52.160;-0.428;2024-01-15T20:27:28;0.10;99.90
20744;DHT22;56303;52.160;-0.428;2024-01-15T20:34:33;0.30;99.90
20744;DHT22;56303;52.160;-0.428;2024-01-15T20:37:42;1.10;99.90
20744;DHT22;56303;52.160;-0.428;2024-01-15T20:52:01;0.70;99.90
20744;DHT22;56303;52.160;-0.428;2024-01-15T20:54:30;0.10;99.90
20744;DHT22;56303;52.160;-0.428;2024-01-15T20:56:57;1.30;99.90
20744;DHT22;56303;52.160;-0.428;2024-01-15T20:59:27;0.90;99.90
20744;DHT22;56303;52.160;-0.428;2024-01-15T21:01:55;0.90;99.90
20744;DHT22;56303;52.160;-0.428;2024-01-15T21:04:22;0.70;99.90
20744;DHT22;56303;52.160;-0.428;2024-01-15T21:06:49;0.70;99.90
20744;DHT22;56303;52.160;-0.428;2024-01-15T21:09:17;1.00;99.90
20744;DHT22;56303;52.160;-0.428;2024-01-15T21:11:44;1.10;99.90
20744;DHT22;56303;52.160;-0.428;2024-01-15T21:14:11;1.10;99.90
20744;DHT22;56303;52.160;-0.428;2024-01-15T21:16:45;1.30;99.90
20744;DHT22;56303;52.160;-0.428;2024-01-15T21:19:13;1.30;99.90
20744;DHT22;56303;52.160;-0.428;2024-01-15T21:28:05;1.30;99.90
20744;DHT22;56303;52.160;-0.428;2024-01-15T22:10:53;0.90;99.90
20744;DHT22;56303;52.160;-0.428;2024-01-15T22:30:59;1.90;99.90
20744;DHT22;56303;52.160;-0.428;2024-01-15T22:33:45;0.80;99.90
20744;DHT22;56303;52.160;-0.428;2024-01-15T22:36:20;-1.00;99.90
20744;DHT22;56303;52.160;-0.428;2024-01-15T22:38:55;0.40;99.90
20744;DHT22;56303;52.160;-0.428;2024-01-15T22:49:52;0.90;99.90
20744;DHT22;56303;52.160;-0.428;2024-01-15T22:52:25;-0.80;99.90
20744;DHT22;56303;52.160;-0.428;2024-01-15T22:58:57;0.40;99.90
20744;DHT22;56303;52.160;-0.428;2024-01-15T23:01:28;0.70;99.90
20744;DHT22;56303;52.160;-0.428;2024-01-15T23:07:51;-0.10;99.90
20744;DHT22;56303;52.160;-0.428;2024-01-15T23:10:20;0.00;99.90
20744;DHT22;56303;52.160;-0.428;2024-01-15T23:16:35;-1.00;99.90
